KCGI/CGI METAR and TAF weather

Enter ICAO airport designator
Station Type Date Time Source
KCGI METAR 2021/10/20 05:53 UTC NOAA

KCGI 200553Z AUTO 17005KT 10SM CLR 13/09 A3014 RMK AO2 SLP205 T01280089 10161 20128 402280039 50003


Station Type Date Time Source
KCGI Decoded METAR 2021/10/20 05:53 UTC NOAA

CAPE GIRARDEAU REGIONAL, MO, United States (KCGI) 37-14N 089-35W 102M
Oct 20, 2021 - 01:53 AM EDT / 2021.10.20 0553 UTC
Wind: from the S (170 degrees) at 6 MPH (5 KT):0
Visibility: 10 mile(s):0
Sky conditions: clear
Temperature: 55.0 F (12.8 C)
Dew Point: 48.0 F (8.9 C)
Relative Humidity: 77%
Pressure (altimeter): 30.14 in. Hg (1020 hPa)
Pressure tendency: 0.01 inches (0.3 hPa) higher than three hours ago
ob: KCGI 200553Z AUTO 17005KT 10SM CLR 13/09 A3014 RMK AO2 SLP205 T01280089 10161 20128 402280039 50003
cycle: 6

Station Type Date Time Source
KCGI TAF 2021/10/20 06:22 UTC NOAA

TAF KCGI 200520Z 2006/2106 18004KT P6SM SKC
FM201400 20010KT P6SM SKC
FM202300 18005KT P6SM BKN150

Example: see airport list